Crooked Creek Research Lab Weather observations

Data are for 10 minute period ending at time listed.
 Day   Time    Ave.   Ave.  Ave.  Vector   Max.   Stn.    Total    Solar   Ave.   Snow 
  of    of     Air    Rel.  Wind   Wind    Wind   Baro.  Precip.   Rad.    Soil   Depth
Year   Day     Temp.  Hum.  Speed  Dir.    Gust   Pres.                    Temp.       
2016   (PST)    F      %     mph   deg.    mph     mb.     in.     W/m2     F      in. 
---------------------------------------------------------------------------------------  
 236    4:20   37.0    74    0.0   235      0.7   699.2    0.00       0    999.0    -0.6
 236    4:30   37.2    72    0.7   162      2.0   699.4    0.00       0    999.0    -0.6
 236    4:40   37.1    72    0.8   191      2.6   699.5    0.00       0    999.0    -0.6
 236    4:50   36.3    74    0.3   236      2.7   699.8    0.00       0    999.0    -0.6
 236    5:00   35.9    75    0.3   214      1.6   699.5    0.00       0    999.0    -0.6
 236    5:10   35.5    76    0.4   230      2.5   699.2    0.00       1    999.0    -0.6
 236    5:20   35.7    76    0.0   213      0.8   699.0    0.00       4    999.0    -0.6
 236    5:30   36.0    75    0.1   168      1.5   699.2    0.00       9    999.0    -0.7
 236    5:40   35.6    76    0.0   200      0.7   699.4    0.00      14    999.0    -0.7
 236    5:50   35.5    77    0.1   200      0.9   699.2    0.00      19    999.0    -0.6
 236    6:00   36.1    76    0.0     0      0.0   699.3    0.00      22    999.0    -0.6
 236    6:10   36.8    76    0.3   195      1.7   699.3    0.00      25    999.0    -0.7
 236    6:20   37.9    74    1.2   143      2.9   699.4    0.00      28    999.0    -0.6
 236    6:30   40.0    70    1.5   145      3.4   699.2    0.00      30    999.0    -0.6
 236    6:40   41.6    64    0.7   128      4.2   699.6    0.00      33    999.0    -0.5
 236    6:50   46.4    52    2.7    74      5.6   699.0    0.00     150    999.0    -0.5
 236    7:00   51.0    44    3.1    99      5.5   698.6    0.00     292    999.0    -0.7
 236    7:10   53.2    40    2.9    97      6.9   698.7    0.00     326    999.0    -0.7
 236    7:20   54.5    39    3.5    91      6.6   697.7    0.00     360    999.0    -0.7
 236    7:30   56.0    37    2.7    82      5.5   699.4    0.00     393    999.0    -0.8
 236    7:40   57.0    36    2.8   108      4.7   699.8    0.00     425    999.0    -0.8
 236    7:50   58.6    34    1.4    97      3.4   699.1    0.00     457    999.0    -0.9
 236    8:00   58.5    35    2.5   234      5.5   700.5    0.00     490    999.0    -0.9
 236    8:10   57.3    36    2.9   182      6.7   700.1    0.00     522    999.0    -0.7
 236    8:20   57.8    36    2.5   200      6.2   700.8    0.00     550    999.0    -0.8
 236    8:30   57.9    36    2.8   206      9.4   700.4    0.00     577    999.0    -0.8
 236    8:40   57.8    36    3.5   204      7.5   700.9    0.00     606    999.0    -0.8
 236    8:50   58.0    37    4.0   206      9.7   708.6    0.00     586    999.0    -0.7
 236    9:00   59.0    36    3.6   160      9.6   708.7    0.00     696    999.0    -0.6
 236    9:10   59.7    34    4.2   133     16.1   708.7    0.00     714    999.0    -0.8
 236    9:20   59.2    34    4.0   127     10.9   708.8    0.00     518    999.0    -0.8
 236    9:30   57.7    35    2.6   182      6.5   708.9    0.00     237    999.0    -0.8
 236    9:40   56.4    37    2.6   144      6.6   709.0    0.00     116    999.0    -0.7
 236    9:50   55.9    37    3.7   254      6.4   709.0    0.00     132    999.0    -0.6
 236   10:00   55.9    37    2.8   236      6.9   709.0    0.00     128    999.0    -0.6
 236   10:10   56.0    37    2.2   250      4.7   709.0    0.00     156    999.0    -0.6
 236   10:20   56.3    36    3.6   264      7.3   709.0    0.00     184    999.0    -0.6
 236   10:30   56.4    36    2.6   235      6.1   709.0    0.00     179    999.0    -0.6
 236   10:40   56.6    36    1.6   133      4.0   709.0    0.00     187    999.0    -0.6
 236   10:50   56.7    36    2.9   129      4.6   709.0    0.00     205    999.0    -0.6
 236   11:00   57.1    38    2.6   129      8.0   709.0    0.00     255    999.0    -0.6
 236   11:10   57.0    38    3.1   134      5.7   709.0    0.00     282    999.0    -0.7
 236   11:20   57.0    38    3.4   127      7.4   708.8    0.00     233    999.0    -0.6
 236   11:30   57.1    38    4.5   144      7.3   708.9    0.00     214    999.0    -0.6
 236   11:40   57.2    38    3.0   115      7.8   709.0    0.00     301    999.0    -0.6
 236   11:50   58.5    38    2.5   154      6.4   709.1    0.00     390    999.0    -0.7
 236   12:00   58.2    37    3.3    47      7.4   709.0    0.00     211    999.0    -0.7
 236   12:10   58.1    38    3.0    92      6.9   709.0    0.00     292    999.0    -0.6
 236   12:20   57.8    37    1.8    15      4.8   709.0    0.00     242    999.0    -0.7
 236   12:30   58.2    37    2.0    36      4.3   709.0    0.00     375    999.0    -0.6
 236   12:40   60.9    34    1.6    61      5.0   708.8    0.00     757    999.0    -0.7
 236   12:50   60.3    35    2.7   144      8.0   708.7    0.00     436    999.0    -0.8
 236   13:00   59.2    36    4.0   135      8.3   708.7    0.00     238    999.0    -0.7
 236   13:10   58.1    36    3.0   151      7.3   708.7    0.00     138    999.0    -0.7
 236   13:20   57.8    37    2.4    84      4.4   708.7    0.00     102    999.0    -0.6
 236   13:30   57.7    37    1.7   355      4.2   708.7    0.00      81    999.0    -0.6
 236   13:40   57.7    38    2.5    22      6.7   708.7    0.00      82    999.0    -0.6
 236   13:50   56.9    40    5.0   333     11.9   708.8    0.00     103    999.0    -0.6
 236   14:00   55.5    43    5.6    17     13.9   708.7    0.00     172    999.0    -0.7
 236   14:10   55.7    41    2.8    72      5.7   708.6    0.00     161    999.0    -0.6
 236   14:20   56.6    41    2.0   125      3.7   708.6    0.00     296    999.0    -0.6
 236   14:30   57.6    39    3.7   110      7.7   708.5    0.00     357    999.0    -0.6
 236   14:40   58.2    38    3.6   126      8.4   708.5    0.00     474    999.0    -0.7
 236   14:50   58.9    36    5.2   149      9.8   708.5    0.00     534    999.0    -0.6
 236   15:00   59.5    34    6.9   265     16.8   708.6    0.00     382    999.0    -0.7
 236   15:10   58.4    38   10.2   252     18.9   708.6    0.00     553    999.0    -0.8
 236   15:20   58.4    39    8.7   242     15.1   708.5    0.00     607    999.0    -0.7
 236   15:30   57.8    40    8.6   246     14.3   708.5    0.00     563    999.0    -0.7
 236   15:40   57.7    40    7.8   240     13.6   708.5    0.00     548    999.0    -0.7
 236   15:50   58.2    40    6.7   239     12.7   708.5    0.00     594    999.0    -0.7
 236   16:00   58.3    39    7.6   249     13.2   708.3    0.00     529    999.0    -0.7
 236   16:10   57.4    40    7.7   243     14.6   708.7    0.00     288    999.0    -0.7
 236   16:20   55.5    42    7.4   293     12.2   709.0    0.00      35    999.0    -0.7
 236   16:30   54.2    47    6.1   341     17.0   709.2    0.00      13    999.0    -0.6
 236   16:40   51.3    63    7.1    53     15.7   709.3    0.03      13    999.0    -0.7
 236   16:50   48.8    72    4.3   163      6.5   709.0    0.01      35    999.0    -0.7
 236   17:00   48.7    72    4.4   135      9.7   708.5    0.00      80    999.0    -0.6
 236   17:10   50.0    70    2.0   173      5.6   708.4    0.00     151    999.0    -0.6
 236   17:20   51.1    66    1.3   300      5.2   708.4    0.00      78    999.0    -0.6
 236   17:30   51.3    63    2.6   179      8.9   708.4    0.00      59    999.0    -0.6
 236   17:40   53.4    50    8.0   279     20.8   708.4    0.00      59    999.0    -0.7
 236   17:50   54.0    48    5.5   294     16.3   708.5    0.00      36    999.0    -0.7
 236   18:00   54.1    46    6.1   250     13.1   708.5    0.00      20    999.0    -0.6
 236   18:10   53.9    46    8.6   268     14.5   708.5    0.00      15    999.0    -0.7
 236   18:20   53.3    49    6.7   282     12.3   708.5    0.00      11    999.0    -0.6
 236   18:30   52.6    51    5.5   277     11.8   708.8    0.00      11    999.0    -0.6
 236   18:40   51.9    53    4.1   268      7.7   708.8    0.00       4    999.0    -0.6
 236   18:50   51.4    54    3.4   268      7.1   708.8    0.00       1    999.0    -0.6
 236   19:00   51.5    51    4.2   241      9.7   708.8    0.00       0    999.0    -0.5
 236   19:10   52.6    47    4.1   237     11.4   708.8    0.00       0    999.0    -0.5
 236   19:20   52.8    45    4.7   255      8.2   708.8    0.00       0    999.0    -0.6
 236   19:30   51.8    46    3.6   268      6.6   709.0    0.00       0    999.0    -0.7
 236   19:40   50.8    48    2.2   250      5.2   709.0    0.00       0    999.0    -0.7
 236   19:50   49.4    49    3.0   226      8.6   709.1    0.00       0    999.0    -0.6
 236   20:00   49.1    52    2.3   142      3.9   709.3    0.00       0    999.0    -0.8
 236   20:10   46.8    58    1.1   139      2.4   709.3    0.00       0    999.0    -0.7
 236   20:20   45.0    62    0.5   271      3.4   709.3    0.00       0    999.0    -0.6
 236   20:30   44.7    63    1.1   137      3.3   709.3    0.00       0    999.0    -0.7
 236   20:40   44.1    64    1.8   133      3.2   709.2    0.00       0    999.0    -0.7
 236   20:50   43.1    65    1.2   126      3.0   709.3    0.00       0    999.0    -0.6
 236   21:00   41.7    67    1.6   123      3.2   709.3    0.00       0    999.0    -0.6
 236   21:10   41.2    68    1.6   126      2.5   709.2    0.00       0    999.0    -0.5
 236   21:20   40.6    69    1.1   134      3.2   709.2    0.00       0    999.0    -0.6
 236   21:30   40.2    70    0.9   161      3.6   709.3    0.00       0    999.0    -0.6
 236   21:40   41.0    67    2.5   135      4.7   709.2    0.00       0    999.0    -0.7
 236   21:50   40.4    70    1.6   162      5.3   709.3    0.00       0    999.0    -0.6
 236   22:00   42.8    64    3.5   157      7.6   709.2    0.00       0    999.0    -0.3
 236   22:10   48.6    52    3.3   274      8.5   709.2    0.00       0    999.0    -0.5
 236   22:20   49.1    50    2.4   226      7.9   709.2    0.00       0    999.0    -0.7
 236   22:30   49.8    50    3.0   190      6.6   709.1    0.00       0    999.0    -0.6
 236   22:40   49.8    53    3.3   204      7.2   709.1    0.00       0    999.0    -0.6
 236   22:50   50.6    54    4.4   223     11.0   709.2    0.00       0    999.0    -0.7
 236   23:00   50.1    55    4.9   210      9.6   709.2    0.00       0    999.0    -0.7
 236   23:10   49.3    54    4.0   219      7.3   709.2    0.00       0    999.0    -0.6
 236   23:20   49.6    51    4.6   220      9.3   709.2    0.00       0    999.0    -0.7
 236   23:30   48.4    52    6.5   231     10.5   709.3    0.00       0    999.0    -0.6
 236   23:40   48.6    50    6.0   253     10.2   709.3    0.00       0    999.0    -0.6
 236   23:50   48.7    50    4.2   251      8.2   709.3    0.00       0    999.0    -0.7
 237    0:00   48.7    47    3.4   207      6.6   709.3    0.00       0    999.0    -0.6
 237    0:10   48.1    47    2.3    56      9.9   709.2    0.00       0    999.0    -0.7
 237    0:20   49.0    42    3.1    18      7.2   709.1    0.00       0    999.0    -0.5
 237    0:30   50.6    38    3.5    12     10.6   709.1    0.00       0    999.0    -0.5
 237    0:40   51.2    37    2.9   105     14.2   708.9    0.00       0    999.0    -0.6
 237    0:50   51.4    36    4.7   216     14.7   708.8    0.00       0    999.0    -0.6
 237    1:00   50.1    39    1.3   140      4.4   709.0    0.00       0    999.0    -0.8
 237    1:10   46.8    46    1.0    70      2.5   709.0    0.00       0    999.0    -0.9
 237    1:20   42.5    55    2.7   125      4.3   708.9    0.00       0    999.0    -0.7
 237    1:30   41.0    56    1.6   176      3.8   709.0    0.00       0    999.0    -0.7
 237    1:40   40.4    58    2.3   154      4.5   709.0    0.00       0    999.0    -0.7
 237    1:50   40.1    59    2.8   150      5.3   708.8    0.00       0    999.0    -0.7
 237    2:00   38.6    62    1.9   135      4.2   708.8    0.00       0    999.0    -0.7
 237    2:10   38.4    61    1.8   135      4.7   708.7    0.00       0    999.0    -0.7
 237    2:20   38.8    59    1.5   132      3.9   708.8    0.00       0    999.0    -0.6
 237    2:30   40.5    54    4.0   126      6.4   708.6    0.00       0    999.0    -0.6
 237    2:40   41.7    51    3.0   136      6.4   708.6    0.00       0    999.0    -0.6
 237    2:50   45.8    40    4.4   307     10.5   708.5    0.00       0    999.0    -0.5
 237    3:00   48.3    36    5.8   273     11.1   708.5    0.00       0    999.0    -0.6
 237    3:10   48.2    35    5.8   270     12.3   708.5    0.00       0    999.0    -0.5
 237    3:20   48.9    33    6.6   267     13.4   708.7    0.00       0    999.0    -0.6
 237    3:30   48.8    33    6.6   283     11.5   708.6    0.00       0    999.0    -0.6
 237    3:40   48.3    34    4.1   298     10.3   708.6    0.00       0    999.0    -0.5
 237    3:50   48.9    33    5.0   277     10.7   708.6    0.00       0    999.0    -0.6
 237    4:00   47.7    34    4.0   300      8.0   708.5    0.00       0    999.0    -0.5
 237    4:10   47.4    34    5.4   290      9.3   708.5    0.00       0    999.0    -0.5

Return to Crooked Creek Research Lab graphs page.


Western Regional Climate Center,wrcc@dri.edu